sensor_id;sensor_type;location;lat;lon;timestamp;temperature;humidity
1181;DHT22;579;52.046;8.532;2023-04-19T00:01:05;13.80;1.00
1181;DHT22;579;52.046;8.532;2023-04-19T00:03:34;13.70;1.00
1181;DHT22;579;52.046;8.532;2023-04-19T00:06:00;13.70;1.00
1181;DHT22;579;52.046;8.532;2023-04-19T00:13:42;13.70;1.00
1181;DHT22;579;52.046;8.532;2023-04-19T00:16:09;13.60;1.00
1181;DHT22;579;52.046;8.532;2023-04-19T00:18:35;13.50;1.00
1181;DHT22;579;52.046;8.532;2023-04-19T00:21:03;13.50;1.00
1181;DHT22;579;52.046;8.532;2023-04-19T00:23:30;13.40;1.00
1181;DHT22;579;52.046;8.532;2023-04-19T00:25:56;13.30;1.00
1181;DHT22;579;52.046;8.532;2023-04-19T00:28:24;12.90;1.00
1181;DHT22;579;52.046;8.532;2023-04-19T00:35:18;13.10;1.00
1181;DHT22;579;52.046;8.532;2023-04-19T00:37:44;12.90;1.00
1181;DHT22;579;52.046;8.532;2023-04-19T00:40:11;13.00;1.00
1181;DHT22;579;52.046;8.532;2023-04-19T00:42:38;12.90;1.00
1181;DHT22;579;52.046;8.532;2023-04-19T00:45:06;12.90;1.00
1181;DHT22;579;52.046;8.532;2023-04-19T00:47:33;12.70;1.00
1181;DHT22;579;52.046;8.532;2023-04-19T00:50:00;12.30;1.00
1181;DHT22;579;52.046;8.532;2023-04-19T00:55:07;12.30;1.00
1181;DHT22;579;52.046;8.532;2023-04-19T00:57:36;12.40;1.00
1181;DHT22;579;52.046;8.532;2023-04-19T01:00:03;12.30;1.00
1181;DHT22;579;52.046;8.532;2023-04-19T01:02:31;12.30;1.00
1181;DHT22;579;52.046;8.532;2023-04-19T01:04:57;12.50;1.00
1181;DHT22;579;52.046;8.532;2023-04-19T01:07:24;12.30;1.00
1181;DHT22;579;52.046;8.532;2023-04-19T01:09:50;12.00;1.00
1181;DHT22;579;52.046;8.532;2023-04-19T01:16:47;12.10;1.00
1181;DHT22;579;52.046;8.532;2023-04-19T01:19:15;11.90;1.00
1181;DHT22;579;52.046;8.532;2023-04-19T01:21:43;12.10;1.00
1181;DHT22;579;52.046;8.532;2023-04-19T01:24:11;11.90;1.00
1181;DHT22;579;52.046;8.532;2023-04-19T01:26:38;11.90;1.00
1181;DHT22;579;52.046;8.532;2023-04-19T01:29:05;11.90;1.00
1181;DHT22;579;52.046;8.532;2023-04-19T01:31:31;11.70;1.00
1181;DHT22;579;52.046;8.532;2023-04-19T01:36:38;11.50;1.00
1181;DHT22;579;52.046;8.532;2023-04-19T01:39:05;11.70;1.00
1181;DHT22;579;52.046;8.532;2023-04-19T01:41:31;11.90;1.00
1181;DHT22;579;52.046;8.532;2023-04-19T01:43:57;11.80;1.00
1181;DHT22;579;52.046;8.532;2023-04-19T01:46:25;11.60;1.00
1181;DHT22;579;52.046;8.532;2023-04-19T01:48:51;11.70;1.00
1181;DHT22;579;52.046;8.532;2023-04-19T01:51:17;11.80;1.00
1181;DHT22;579;52.046;8.532;2023-04-19T01:58:48;11.70;1.00
1181;DHT22;579;52.046;8.532;2023-04-19T02:01:14;11.80;1.00
1181;DHT22;579;52.046;8.532;2023-04-19T02:03:40;11.80;1.00
1181;DHT22;579;52.046;8.532;2023-04-19T02:06:09;11.90;1.00
1181;DHT22;579;52.046;8.532;2023-04-19T02:08:36;11.90;1.00
1181;DHT22;579;52.046;8.532;2023-04-19T02:11:06;11.80;1.00
1181;DHT22;579;52.046;8.532;2023-04-19T02:13:33;11.80;1.00
1181;DHT22;579;52.046;8.532;2023-04-19T02:21:03;11.80;1.00
1181;DHT22;579;52.046;8.532;2023-04-19T02:23:30;11.60;1.00
1181;DHT22;579;52.046;8.532;2023-04-19T02:25:57;11.50;1.00
1181;DHT22;579;52.046;8.532;2023-04-19T02:28:23;11.40;1.00
1181;DHT22;579;52.046;8.532;2023-04-19T02:30:49;11.50;1.00
1181;DHT22;579;52.046;8.532;2023-04-19T02:33:16;11.30;1.00
1181;DHT22;579;52.046;8.532;2023-04-19T02:35:42;11.40;1.00
1181;DHT22;579;52.046;8.532;2023-04-19T02:42:17;11.10;1.00
1181;DHT22;579;52.046;8.532;2023-04-19T02:44:43;11.30;1.00
1181;DHT22;579;52.046;8.532;2023-04-19T02:47:09;11.30;1.00
1181;DHT22;579;52.046;8.532;2023-04-19T02:49:36;11.10;1.00
1181;DHT22;579;52.046;8.532;2023-04-19T02:52:05;11.00;1.00
1181;DHT22;579;52.046;8.532;2023-04-19T02:54:32;11.00;1.00
1181;DHT22;579;52.046;8.532;2023-04-19T02:56:59;10.90;1.00
1181;DHT22;579;52.046;8.532;2023-04-19T03:04:30;10.80;1.00
1181;DHT22;579;52.046;8.532;2023-04-19T03:06:56;10.90;1.00
1181;DHT22;579;52.046;8.532;2023-04-19T03:09:22;10.90;1.00
1181;DHT22;579;52.046;8.532;2023-04-19T03:11:49;10.90;1.00
1181;DHT22;579;52.046;8.532;2023-04-19T03:14:15;10.80;1.00
1181;DHT22;579;52.046;8.532;2023-04-19T03:16:41;10.60;1.00
1181;DHT22;579;52.046;8.532;2023-04-19T03:19:08;10.80;1.00
1181;DHT22;579;52.046;8.532;2023-04-19T03:26:18;10.80;1.00
1181;DHT22;579;52.046;8.532;2023-04-19T03:28:44;10.90;1.00
1181;DHT22;579;52.046;8.532;2023-04-19T03:31:11;10.80;1.00
1181;DHT22;579;52.046;8.532;2023-04-19T03:33:37;10.70;1.00
1181;DHT22;579;52.046;8.532;2023-04-19T03:36:03;10.50;1.00
1181;DHT22;579;52.046;8.532;2023-04-19T03:38:30;10.60;1.00
1181;DHT22;579;52.046;8.532;2023-04-19T03:40:56;10.70;1.00
1181;DHT22;579;52.046;8.532;2023-04-19T03:48:26;10.80;1.00
1181;DHT22;579;52.046;8.532;2023-04-19T03:50:52;10.30;1.00
1181;DHT22;579;52.046;8.532;2023-04-19T03:53:19;10.20;1.00
1181;DHT22;579;52.046;8.532;2023-04-19T03:55:45;10.20;1.00
1181;DHT22;579;52.046;8.532;2023-04-19T03:58:11;10.00;1.00
1181;DHT22;579;52.046;8.532;2023-04-19T04:00:37;10.00;1.00
1181;DHT22;579;52.046;8.532;2023-04-19T04:03:03;10.10;1.00
1181;DHT22;579;52.046;8.532;2023-04-19T04:10:18;9.80;1.00
1181;DHT22;579;52.046;8.532;2023-04-19T04:12:44;9.80;1.00
1181;DHT22;579;52.046;8.532;2023-04-19T04:15:10;9.80;1.00
1181;DHT22;579;52.046;8.532;2023-04-19T04:17:36;9.70;1.00
1181;DHT22;579;52.046;8.532;2023-04-19T04:20:03;9.60;1.00
1181;DHT22;579;52.046;8.532;2023-04-19T04:22:31;9.50;1.00
1181;DHT22;579;52.046;8.532;2023-04-19T04:24:58;9.40;1.00
1181;DHT22;579;52.046;8.532;2023-04-19T04:32:31;9.40;1.00
1181;DHT22;579;52.046;8.532;2023-04-19T04:35:00;9.20;1.00
1181;DHT22;579;52.046;8.532;2023-04-19T04:37:26;9.10;1.00
1181;DHT22;579;52.046;8.532;2023-04-19T04:39:53;9.20;1.00
1181;DHT22;579;52.046;8.532;2023-04-19T04:42:19;9.20;1.00
1181;DHT22;579;52.046;8.532;2023-04-19T04:44:46;9.20;1.00
1181;DHT22;579;52.046;8.532;2023-04-19T04:47:13;8.90;1.00
1181;DHT22;579;52.046;8.532;2023-04-19T04:52:33;7.30;1.00
1181;DHT22;579;52.046;8.532;2023-04-19T04:54:59;8.60;1.00
1181;DHT22;579;52.046;8.532;2023-04-19T04:57:25;8.60;1.00
1181;DHT22;579;52.046;8.532;2023-04-19T04:59:52;8.60;1.00
1181;DHT22;579;52.046;8.532;2023-04-19T05:02:20;8.60;1.00
1181;DHT22;579;52.046;8.532;2023-04-19T05:04:46;8.80;1.00
1181;DHT22;579;52.046;8.532;2023-04-19T05:07:12;8.70;1.00
1181;DHT22;579;52.046;8.532;2023-04-19T05:13:15;8.70;1.00
1181;DHT22;579;52.046;8.532;2023-04-19T05:15:41;8.60;1.00
1181;DHT22;579;52.046;8.532;2023-04-19T05:18:07;8.80;1.00
1181;DHT22;579;52.046;8.532;2023-04-19T05:20:34;8.80;1.00
1181;DHT22;579;52.046;8.532;2023-04-19T05:23:00;8.70;1.00
1181;DHT22;579;52.046;8.532;2023-04-19T05:25:28;8.70;1.00
1181;DHT22;579;52.046;8.532;2023-04-19T05:27:54;8.90;1.00
1181;DHT22;579;52.046;8.532;2023-04-19T05:34:45;8.70;1.00
1181;DHT22;579;52.046;8.532;2023-04-19T05:37:11;8.70;1.00
1181;DHT22;579;52.046;8.532;2023-04-19T05:39:38;8.50;1.00
1181;DHT22;579;52.046;8.532;2023-04-19T05:42:04;8.50;1.00
1181;DHT22;579;52.046;8.532;2023-04-19T05:44:30;8.60;1.00
1181;DHT22;579;52.046;8.532;2023-04-19T05:46:56;8.80;1.00
1181;DHT22;579;52.046;8.532;2023-04-19T05:49:22;8.70;1.00
1181;DHT22;579;52.046;8.532;2023-04-19T05:56:55;8.60;1.00
1181;DHT22;579;52.046;8.532;2023-04-19T05:59:21;8.70;1.00
1181;DHT22;579;52.046;8.532;2023-04-19T06:01:47;8.70;1.00
1181;DHT22;579;52.046;8.532;2023-04-19T06:04:13;8.70;1.00
1181;DHT22;579;52.046;8.532;2023-04-19T06:06:39;8.90;1.00
1181;DHT22;579;52.046;8.532;2023-04-19T06:09:05;8.90;1.00
1181;DHT22;579;52.046;8.532;2023-04-19T06:11:32;8.90;1.00
1181;DHT22;579;52.046;8.532;2023-04-19T06:16:39;8.90;1.00
1181;DHT22;579;52.046;8.532;2023-04-19T06:19:05;8.70;1.00
1181;DHT22;579;52.046;8.532;2023-04-19T06:21:32;8.80;1.00
1181;DHT22;579;52.046;8.532;2023-04-19T06:23:59;9.10;1.00
1181;DHT22;579;52.046;8.532;2023-04-19T06:26:25;9.00;1.00
1181;DHT22;579;52.046;8.532;2023-04-19T06:28:51;9.10;1.00
1181;DHT22;579;52.046;8.532;2023-04-19T06:31:17;9.20;1.00
1181;DHT22;579;52.046;8.532;2023-04-19T06:36:25;9.20;1.00
1181;DHT22;579;52.046;8.532;2023-04-19T06:38:51;9.10;1.00
1181;DHT22;579;52.046;8.532;2023-04-19T06:41:18;9.20;1.00
1181;DHT22;579;52.046;8.532;2023-04-19T06:43:44;9.10;1.00
1181;DHT22;579;52.046;8.532;2023-04-19T06:46:10;9.00;1.00
1181;DHT22;579;52.046;8.532;2023-04-19T06:48:38;9.20;1.00
1181;DHT22;579;52.046;8.532;2023-04-19T06:51:04;9.20;1.00
1181;DHT22;579;52.046;8.532;2023-04-19T06:58:33;9.30;1.00
1181;DHT22;579;52.046;8.532;2023-04-19T07:00:59;9.00;1.00
1181;DHT22;579;52.046;8.532;2023-04-19T07:03:26;9.20;1.00
1181;DHT22;579;52.046;8.532;2023-04-19T07:05:52;9.30;1.00
1181;DHT22;579;52.046;8.532;2023-04-19T07:08:21;9.10;1.00
1181;DHT22;579;52.046;8.532;2023-04-19T07:10:47;9.40;1.00
1181;DHT22;579;52.046;8.532;2023-04-19T07:13:13;9.80;1.00
1181;DHT22;579;52.046;8.532;2023-04-19T07:15:40;9.90;1.00
1181;DHT22;579;52.046;8.532;2023-04-19T07:23:11;10.00;1.00
1181;DHT22;579;52.046;8.532;2023-04-19T07:25:37;10.10;1.00
1181;DHT22;579;52.046;8.532;2023-04-19T07:28:03;10.30;1.00
1181;DHT22;579;52.046;8.532;2023-04-19T07:30:29;10.20;1.00
1181;DHT22;579;52.046;8.532;2023-04-19T07:32:56;10.50;1.00
1181;DHT22;579;52.046;8.532;2023-04-19T07:35:22;10.80;1.00
1181;DHT22;579;52.046;8.532;2023-04-19T07:37:48;11.00;1.00
1181;DHT22;579;52.046;8.532;2023-04-19T07:42:55;11.30;1.00
1181;DHT22;579;52.046;8.532;2023-04-19T07:45:21;10.90;1.00
1181;DHT22;579;52.046;8.532;2023-04-19T07:47:47;10.80;1.00
1181;DHT22;579;52.046;8.532;2023-04-19T07:50:13;11.10;1.00
1181;DHT22;579;52.046;8.532;2023-04-19T07:52:40;11.00;1.00
1181;DHT22;579;52.046;8.532;2023-04-19T07:55:07;11.20;1.00
1181;DHT22;579;52.046;8.532;2023-04-19T07:57:33;11.30;1.00
1181;DHT22;579;52.046;8.532;2023-04-19T08:06:18;12.40;1.00
1181;DHT22;579;52.046;8.532;2023-04-19T08:08:46;12.30;1.00
1181;DHT22;579;52.046;8.532;2023-04-19T08:11:12;12.40;1.00
1181;DHT22;579;52.046;8.532;2023-04-19T08:13:38;12.60;1.00
1181;DHT22;579;52.046;8.532;2023-04-19T08:16:05;12.80;1.00
1181;DHT22;579;52.046;8.532;2023-04-19T08:18:33;12.90;1.00
1181;DHT22;579;52.046;8.532;2023-04-19T08:20:59;12.90;1.00
1181;DHT22;579;52.046;8.532;2023-04-19T08:26:17;13.00;1.00
1181;DHT22;579;52.046;8.532;2023-04-19T08:28:43;13.40;1.00
1181;DHT22;579;52.046;8.532;2023-04-19T08:31:09;13.40;1.00
1181;DHT22;579;52.046;8.532;2023-04-19T08:33:36;13.60;1.00
1181;DHT22;579;52.046;8.532;2023-04-19T08:36:02;13.60;1.00
1181;DHT22;579;52.046;8.532;2023-04-19T08:38:29;13.90;1.00
1181;DHT22;579;52.046;8.532;2023-04-19T08:40:55;14.40;1.00
1181;DHT22;579;52.046;8.532;2023-04-19T08:46:02;14.60;1.00
1181;DHT22;579;52.046;8.532;2023-04-19T08:48:28;15.30;1.00
1181;DHT22;579;52.046;8.532;2023-04-19T08:50:55;15.50;1.00
1181;DHT22;579;52.046;8.532;2023-04-19T08:53:24;15.50;1.00
1181;DHT22;579;52.046;8.532;2023-04-19T08:55:53;15.50;1.00
1181;DHT22;579;52.046;8.532;2023-04-19T08:58:23;15.80;1.00
1181;DHT22;579;52.046;8.532;2023-04-19T09:00:49;15.80;1.00
1181;DHT22;579;52.046;8.532;2023-04-19T09:08:23;15.90;1.00
1181;DHT22;579;52.046;8.532;2023-04-19T09:10:53;16.80;1.00
1181;DHT22;579;52.046;8.532;2023-04-19T09:13:20;16.10;1.00
1181;DHT22;579;52.046;8.532;2023-04-19T09:15:47;16.30;1.00
1181;DHT22;579;52.046;8.532;2023-04-19T09:18:13;16.30;1.00
1181;DHT22;579;52.046;8.532;2023-04-19T09:20:40;16.50;1.00
1181;DHT22;579;52.046;8.532;2023-04-19T09:23:09;16.60;1.00
1181;DHT22;579;52.046;8.532;2023-04-19T09:28:17;16.80;1.00
1181;DHT22;579;52.046;8.532;2023-04-19T09:30:43;16.90;1.00
1181;DHT22;579;52.046;8.532;2023-04-19T09:33:09;16.70;1.00
1181;DHT22;579;52.046;8.532;2023-04-19T09:35:40;16.60;1.00
1181;DHT22;579;52.046;8.532;2023-04-19T09:38:07;16.60;1.00
1181;DHT22;579;52.046;8.532;2023-04-19T09:40:34;16.70;1.00
1181;DHT22;579;52.046;8.532;2023-04-19T09:43:01;16.80;1.00
1181;DHT22;579;52.046;8.532;2023-04-19T09:50:32;17.50;1.00
1181;DHT22;579;52.046;8.532;2023-04-19T09:52:59;18.30;1.00
1181;DHT22;579;52.046;8.532;2023-04-19T09:55:26;18.40;1.00
1181;DHT22;579;52.046;8.532;2023-04-19T09:57:52;18.30;1.00
1181;DHT22;579;52.046;8.532;2023-04-19T10:00:19;18.50;1.00
1181;DHT22;579;52.046;8.532;2023-04-19T10:02:50;18.70;1.00
1181;DHT22;579;52.046;8.532;2023-04-19T10:05:21;18.90;1.00
1181;DHT22;579;52.046;8.532;2023-04-19T10:10:31;19.10;1.00
1181;DHT22;579;52.046;8.532;2023-04-19T10:12:58;19.20;1.00
1181;DHT22;579;52.046;8.532;2023-04-19T10:15:26;19.50;1.00
1181;DHT22;579;52.046;8.532;2023-04-19T10:17:53;19.70;1.00
1181;DHT22;579;52.046;8.532;2023-04-19T10:20:22;19.40;1.00
1181;DHT22;579;52.046;8.532;2023-04-19T10:22:50;18.70;1.00
1181;DHT22;579;52.046;8.532;2023-04-19T10:25:16;18.50;1.00
1181;DHT22;579;52.046;8.532;2023-04-19T10:30:30;18.40;1.00
1181;DHT22;579;52.046;8.532;2023-04-19T10:32:58;18.10;1.00
1181;DHT22;579;52.046;8.532;2023-04-19T10:35:26;18.10;1.00
1181;DHT22;579;52.046;8.532;2023-04-19T10:38:05;18.10;1.00
1181;DHT22;579;52.046;8.532;2023-04-19T10:40:55;17.70;1.00
1181;DHT22;579;52.046;8.532;2023-04-19T10:43:25;17.40;1.00
1181;DHT22;579;52.046;8.532;2023-04-19T10:45:54;17.30;1.00
1181;DHT22;579;52.046;8.532;2023-04-19T10:53:59;17.60;1.00
1181;DHT22;579;52.046;8.532;2023-04-19T10:56:57;17.40;1.00
1181;DHT22;579;52.046;8.532;2023-04-19T10:59:25;17.30;1.00
1181;DHT22;579;52.046;8.532;2023-04-19T11:01:55;17.60;1.00
1181;DHT22;579;52.046;8.532;2023-04-19T11:07:23;17.50;1.00
1181;DHT22;579;52.046;8.532;2023-04-19T11:14:57;17.60;1.00
1181;DHT22;579;52.046;8.532;2023-04-19T11:17:28;17.50;1.00
1181;DHT22;579;52.046;8.532;2023-04-19T11:19:57;17.80;1.00
1181;DHT22;579;52.046;8.532;2023-04-19T11:22:25;17.80;1.00
1181;DHT22;579;52.046;8.532;2023-04-19T11:24:55;18.00;1.00
1181;DHT22;579;52.046;8.532;2023-04-19T11:27:22;18.80;1.00
1181;DHT22;579;52.046;8.532;2023-04-19T11:29:48;19.30;1.00
1181;DHT22;579;52.046;8.532;2023-04-19T11:36:27;20.40;1.00
1181;DHT22;579;52.046;8.532;2023-04-19T11:38:53;21.40;1.00
1181;DHT22;579;52.046;8.532;2023-04-19T11:41:20;22.20;1.00
1181;DHT22;579;52.046;8.532;2023-04-19T11:43:46;22.80;1.00
1181;DHT22;579;52.046;8.532;2023-04-19T11:46:13;23.00;1.00
1181;DHT22;579;52.046;8.532;2023-04-19T11:48:50;23.60;1.00
1181;DHT22;579;52.046;8.532;2023-04-19T11:51:17;23.70;1.00
1181;DHT22;579;52.046;8.532;2023-04-19T11:56:28;24.20;1.00
1181;DHT22;579;52.046;8.532;2023-04-19T11:58:56;24.80;1.00
1181;DHT22;579;52.046;8.532;2023-04-19T12:01:23;24.90;1.00
1181;DHT22;579;52.046;8.532;2023-04-19T12:03:52;24.80;1.00
1181;DHT22;579;52.046;8.532;2023-04-19T12:06:22;24.60;1.00
1181;DHT22;579;52.046;8.532;2023-04-19T12:08:51;24.30;1.00
1181;DHT22;579;52.046;8.532;2023-04-19T12:11:21;23.50;1.00
1181;DHT22;579;52.046;8.532;2023-04-19T12:18:52;23.00;1.00
1181;DHT22;579;52.046;8.532;2023-04-19T12:21:25;23.70;1.00
1181;DHT22;579;52.046;8.532;2023-04-19T12:23:56;23.90;1.00
1181;DHT22;579;52.046;8.532;2023-04-19T12:26:22;24.30;1.00
1181;DHT22;579;52.046;8.532;2023-04-19T12:28:49;24.50;1.00
1181;DHT22;579;52.046;8.532;2023-04-19T12:31:15;24.70;1.00
1181;DHT22;579;52.046;8.532;2023-04-19T12:33:41;24.90;1.00
1181;DHT22;579;52.046;8.532;2023-04-19T12:40:49;25.40;1.00
1181;DHT22;579;52.046;8.532;2023-04-19T12:43:16;26.80;1.00
1181;DHT22;579;52.046;8.532;2023-04-19T12:45:42;26.50;1.00
1181;DHT22;579;52.046;8.532;2023-04-19T12:48:08;25.80;1.00
1181;DHT22;579;52.046;8.532;2023-04-19T12:50:34;25.60;1.00
1181;DHT22;579;52.046;8.532;2023-04-19T12:53:00;25.30;1.00
1181;DHT22;579;52.046;8.532;2023-04-19T12:55:27;24.40;1.00
1181;DHT22;579;52.046;8.532;2023-04-19T13:01:56;26.40;1.00
1181;DHT22;579;52.046;8.532;2023-04-19T13:04:22;28.00;1.00
1181;DHT22;579;52.046;8.532;2023-04-19T13:06:48;28.60;1.00
1181;DHT22;579;52.046;8.532;2023-04-19T13:09:14;28.80;1.00
1181;DHT22;579;52.046;8.532;2023-04-19T13:11:41;28.60;1.00
1181;DHT22;579;52.046;8.532;2023-04-19T13:14:07;28.10;1.00
1181;DHT22;579;52.046;8.532;2023-04-19T13:16:33;26.50;1.00
1181;DHT22;579;52.046;8.532;2023-04-19T13:24:05;24.80;1.00
1181;DHT22;579;52.046;8.532;2023-04-19T13:26:32;25.90;1.00
1181;DHT22;579;52.046;8.532;2023-04-19T13:28:58;25.50;1.00
1181;DHT22;579;52.046;8.532;2023-04-19T13:31:25;25.90;1.00
1181;DHT22;579;52.046;8.532;2023-04-19T13:33:51;26.60;1.00
1181;DHT22;579;52.046;8.532;2023-04-19T13:36:18;26.50;1.00
1181;DHT22;579;52.046;8.532;2023-04-19T13:38:44;26.70;1.00
1181;DHT22;579;52.046;8.532;2023-04-19T13:46:16;29.20;1.00
1181;DHT22;579;52.046;8.532;2023-04-19T13:48:42;29.90;1.00
1181;DHT22;579;52.046;8.532;2023-04-19T13:51:08;29.50;1.00
1181;DHT22;579;52.046;8.532;2023-04-19T13:53:35;29.80;1.00
1181;DHT22;579;52.046;8.532;2023-04-19T13:56:01;30.30;1.00
1181;DHT22;579;52.046;8.532;2023-04-19T13:58:27;30.20;1.00
1181;DHT22;579;52.046;8.532;2023-04-19T14:00:53;29.40;1.00
1181;DHT22;579;52.046;8.532;2023-04-19T14:08:23;29.80;1.00
1181;DHT22;579;52.046;8.532;2023-04-19T14:10:49;30.00;1.00
1181;DHT22;579;52.046;8.532;2023-04-19T14:13:15;30.90;1.00
1181;DHT22;579;52.046;8.532;2023-04-19T14:15:42;32.10;1.00
1181;DHT22;579;52.046;8.532;2023-04-19T14:18:08;32.70;1.00
1181;DHT22;579;52.046;8.532;2023-04-19T14:20:34;32.40;1.00
1181;DHT22;579;52.046;8.532;2023-04-19T14:23:00;32.20;1.00
1181;DHT22;579;52.046;8.532;2023-04-19T14:30:35;32.70;1.00
1181;DHT22;579;52.046;8.532;2023-04-19T14:33:01;33.60;1.00
1181;DHT22;579;52.046;8.532;2023-04-19T14:35:27;31.80;1.00
1181;DHT22;579;52.046;8.532;2023-04-19T14:37:55;30.20;1.00
1181;DHT22;579;52.046;8.532;2023-04-19T14:40:21;30.30;1.00
1181;DHT22;579;52.046;8.532;2023-04-19T14:42:47;29.00;1.00
1181;DHT22;579;52.046;8.532;2023-04-19T14:45:14;27.40;1.00
1181;DHT22;579;52.046;8.532;2023-04-19T14:52:43;25.10;1.00
1181;DHT22;579;52.046;8.532;2023-04-19T14:55:10;23.20;1.00
1181;DHT22;579;52.046;8.532;2023-04-19T14:57:37;22.20;1.00
1181;DHT22;579;52.046;8.532;2023-04-19T15:00:04;21.40;1.00
1181;DHT22;579;52.046;8.532;2023-04-19T15:02:32;22.80;1.00
1181;DHT22;579;52.046;8.532;2023-04-19T15:04:59;25.80;1.00
1181;DHT22;579;52.046;8.532;2023-04-19T15:07:26;28.00;1.00
1181;DHT22;579;52.046;8.532;2023-04-19T15:12:31;29.60;1.00
1181;DHT22;579;52.046;8.532;2023-04-19T15:14:58;29.80;1.00
1181;DHT22;579;52.046;8.532;2023-04-19T15:17:24;28.00;1.00
1181;DHT22;579;52.046;8.532;2023-04-19T15:19:50;27.40;1.00
1181;DHT22;579;52.046;8.532;2023-04-19T15:22:17;26.30;1.00
1181;DHT22;579;52.046;8.532;2023-04-19T15:24:43;24.60;1.00
1181;DHT22;579;52.046;8.532;2023-04-19T15:27:09;23.10;1.00
1181;DHT22;579;52.046;8.532;2023-04-19T15:34:19;21.40;1.00
1181;DHT22;579;52.046;8.532;2023-04-19T15:36:45;20.00;1.00
1181;DHT22;579;52.046;8.532;2023-04-19T15:39:11;19.40;1.00
1181;DHT22;579;52.046;8.532;2023-04-19T15:41:38;19.10;1.00
1181;DHT22;579;52.046;8.532;2023-04-19T15:44:04;18.70;1.00
1181;DHT22;579;52.046;8.532;2023-04-19T15:46:30;18.40;1.00
1181;DHT22;579;52.046;8.532;2023-04-19T15:48:56;18.30;1.00
1181;DHT22;579;52.046;8.532;2023-04-19T15:54:20;18.20;1.00
1181;DHT22;579;52.046;8.532;2023-04-19T15:56:47;17.60;1.00
1181;DHT22;579;52.046;8.532;2023-04-19T15:59:13;17.90;1.00
1181;DHT22;579;52.046;8.532;2023-04-19T16:01:39;17.70;1.00
1181;DHT22;579;52.046;8.532;2023-04-19T16:04:06;17.40;1.00
1181;DHT22;579;52.046;8.532;2023-04-19T16:06:32;17.30;1.00
1181;DHT22;579;52.046;8.532;2023-04-19T16:08:58;17.30;1.00
1181;DHT22;579;52.046;8.532;2023-04-19T16:16:30;17.40;1.00
1181;DHT22;579;52.046;8.532;2023-04-19T16:18:58;17.40;1.00
1181;DHT22;579;52.046;8.532;2023-04-19T16:21:25;17.30;1.00
1181;DHT22;579;52.046;8.532;2023-04-19T16:23:53;17.40;1.00
1181;DHT22;579;52.046;8.532;2023-04-19T16:26:19;17.30;1.00
1181;DHT22;579;52.046;8.532;2023-04-19T16:28:47;17.10;1.00
1181;DHT22;579;52.046;8.532;2023-04-19T16:31:13;17.20;1.00
1181;DHT22;579;52.046;8.532;2023-04-19T16:36:52;16.60;1.00
1181;DHT22;579;52.046;8.532;2023-04-19T16:39:18;16.20;1.00
1181;DHT22;579;52.046;8.532;2023-04-19T16:41:44;16.10;1.00
1181;DHT22;579;52.046;8.532;2023-04-19T16:44:10;16.00;1.00
1181;DHT22;579;52.046;8.532;2023-04-19T16:46:36;15.70;1.00
1181;DHT22;579;52.046;8.532;2023-04-19T16:49:03;15.60;1.00
1181;DHT22;579;52.046;8.532;2023-04-19T16:51:29;15.80;1.00
1181;DHT22;579;52.046;8.532;2023-04-19T16:59:00;15.80;1.00
1181;DHT22;579;52.046;8.532;2023-04-19T17:01:26;15.80;1.00
1181;DHT22;579;52.046;8.532;2023-04-19T17:03:53;15.70;1.00
1181;DHT22;579;52.046;8.532;2023-04-19T17:06:19;15.70;1.00
1181;DHT22;579;52.046;8.532;2023-04-19T17:08:45;15.70;1.00
1181;DHT22;579;52.046;8.532;2023-04-19T17:11:11;15.50;1.00
1181;DHT22;579;52.046;8.532;2023-04-19T17:13:38;15.60;1.00
1181;DHT22;579;52.046;8.532;2023-04-19T17:20:20;15.20;1.00
1181;DHT22;579;52.046;8.532;2023-04-19T17:22:47;15.00;1.00
1181;DHT22;579;52.046;8.532;2023-04-19T17:25:13;15.30;1.00
1181;DHT22;579;52.046;8.532;2023-04-19T17:27:39;15.20;1.00
1181;DHT22;579;52.046;8.532;2023-04-19T17:30:06;14.90;1.00
1181;DHT22;579;52.046;8.532;2023-04-19T17:32:34;14.90;1.00
1181;DHT22;579;52.046;8.532;2023-04-19T17:35:00;14.60;1.00
1181;DHT22;579;52.046;8.532;2023-04-19T17:40:16;14.70;1.00
1181;DHT22;579;52.046;8.532;2023-04-19T17:42:42;14.70;1.00
1181;DHT22;579;52.046;8.532;2023-04-19T17:45:10;14.70;1.00
1181;DHT22;579;52.046;8.532;2023-04-19T17:47:36;14.80;1.00
1181;DHT22;579;52.046;8.532;2023-04-19T17:50:07;14.50;1.00
1181;DHT22;579;52.046;8.532;2023-04-19T17:52:34;14.40;1.00
1181;DHT22;579;52.046;8.532;2023-04-19T17:55:01;14.30;1.00
1181;DHT22;579;52.046;8.532;2023-04-19T18:02:20;14.30;1.00
1181;DHT22;579;52.046;8.532;2023-04-19T18:04:47;14.50;1.00
1181;DHT22;579;52.046;8.532;2023-04-19T18:07:13;14.30;1.00
1181;DHT22;579;52.046;8.532;2023-04-19T18:09:39;14.00;1.00
1181;DHT22;579;52.046;8.532;2023-04-19T18:12:06;14.00;1.00
1181;DHT22;579;52.046;8.532;2023-04-19T18:14:33;13.90;1.00
1181;DHT22;579;52.046;8.532;2023-04-19T18:16:59;13.80;1.00
1181;DHT22;579;52.046;8.532;2023-04-19T18:24:21;14.10;1.00
1181;DHT22;579;52.046;8.532;2023-04-19T18:26:48;14.00;1.00
1181;DHT22;579;52.046;8.532;2023-04-19T18:29:14;14.10;1.00
1181;DHT22;579;52.046;8.532;2023-04-19T18:31:41;14.20;1.00
1181;DHT22;579;52.046;8.532;2023-04-19T18:34:07;14.10;1.00
1181;DHT22;579;52.046;8.532;2023-04-19T18:36:33;14.10;1.00
1181;DHT22;579;52.046;8.532;2023-04-19T18:38:59;13.80;1.00
1181;DHT22;579;52.046;8.532;2023-04-19T18:46:31;13.80;1.00
1181;DHT22;579;52.046;8.532;2023-04-19T18:48:57;13.80;1.00
1181;DHT22;579;52.046;8.532;2023-04-19T18:51:23;13.90;1.00
1181;DHT22;579;52.046;8.532;2023-04-19T18:53:51;13.90;1.00
1181;DHT22;579;52.046;8.532;2023-04-19T18:56:17;13.80;1.00
1181;DHT22;579;52.046;8.532;2023-04-19T18:58:43;13.50;1.00
1181;DHT22;579;52.046;8.532;2023-04-19T19:01:10;13.80;1.00
1181;DHT22;579;52.046;8.532;2023-04-19T19:08:37;13.60;1.00
1181;DHT22;579;52.046;8.532;2023-04-19T19:11:04;13.30;1.00
1181;DHT22;579;52.046;8.532;2023-04-19T19:13:32;13.40;1.00
1181;DHT22;579;52.046;8.532;2023-04-19T19:15:58;13.30;1.00
1181;DHT22;579;52.046;8.532;2023-04-19T19:18:24;13.30;1.00
1181;DHT22;579;52.046;8.532;2023-04-19T19:20:51;13.60;1.00
1181;DHT22;579;52.046;8.532;2023-04-19T19:23:18;13.40;1.00
1181;DHT22;579;52.046;8.532;2023-04-19T19:30:23;13.50;1.00
1181;DHT22;579;52.046;8.532;2023-04-19T19:32:50;13.30;1.00
1181;DHT22;579;52.046;8.532;2023-04-19T19:35:16;13.20;1.00
1181;DHT22;579;52.046;8.532;2023-04-19T19:37:43;13.20;1.00
1181;DHT22;579;52.046;8.532;2023-04-19T19:40:10;13.10;1.00
1181;DHT22;579;52.046;8.532;2023-04-19T19:42:36;13.10;1.00
1181;DHT22;579;52.046;8.532;2023-04-19T19:45:05;13.30;1.00
1181;DHT22;579;52.046;8.532;2023-04-19T19:51:52;12.70;1.00
1181;DHT22;579;52.046;8.532;2023-04-19T19:54:18;12.80;1.00
1181;DHT22;579;52.046;8.532;2023-04-19T19:56:44;12.50;1.00
1181;DHT22;579;52.046;8.532;2023-04-19T19:59:11;12.40;1.00
1181;DHT22;579;52.046;8.532;2023-04-19T20:01:37;12.20;1.00
1181;DHT22;579;52.046;8.532;2023-04-19T20:04:03;12.10;1.00
1181;DHT22;579;52.046;8.532;2023-04-19T20:06:31;12.10;1.00
1181;DHT22;579;52.046;8.532;2023-04-19T20:13:49;11.90;1.00
1181;DHT22;579;52.046;8.532;2023-04-19T20:16:15;12.00;1.00
1181;DHT22;579;52.046;8.532;2023-04-19T20:18:43;12.20;1.00
1181;DHT22;579;52.046;8.532;2023-04-19T20:21:10;12.30;1.00
1181;DHT22;579;52.046;8.532;2023-04-19T20:23:36;12.60;1.00
1181;DHT22;579;52.046;8.532;2023-04-19T20:26:03;12.30;1.00
1181;DHT22;579;52.046;8.532;2023-04-19T20:28:30;12.30;1.00
1181;DHT22;579;52.046;8.532;2023-04-19T20:33:34;12.40;1.00
1181;DHT22;579;52.046;8.532;2023-04-19T20:36:00;12.40;1.00
1181;DHT22;579;52.046;8.532;2023-04-19T20:38:28;12.20;1.00
1181;DHT22;579;52.046;8.532;2023-04-19T20:40:54;12.30;1.00
1181;DHT22;579;52.046;8.532;2023-04-19T20:43:22;12.20;1.00